sensor_id;sensor_type;location;lat;lon;timestamp;temperature;humidity
47765;DHT22;33529;49.242;8.670;2023-07-31T00:00:13;16.80;99.90
47765;DHT22;33529;49.242;8.670;2023-07-31T00:02:41;16.80;99.90
47765;DHT22;33529;49.242;8.670;2023-07-31T00:05:08;16.80;99.90
47765;DHT22;33529;49.242;8.670;2023-07-31T00:07:36;16.80;99.90
47765;DHT22;33529;49.242;8.670;2023-07-31T00:10:03;16.80;99.90
47765;DHT22;33529;49.242;8.670;2023-07-31T00:12:30;16.80;99.90
47765;DHT22;33529;49.242;8.670;2023-07-31T00:14:57;16.70;99.90
47765;DHT22;33529;49.242;8.670;2023-07-31T00:17:23;16.70;99.90
47765;DHT22;33529;49.242;8.670;2023-07-31T00:19:50;16.70;99.90
47765;DHT22;33529;49.242;8.670;2023-07-31T00:22:17;16.70;99.90
47765;DHT22;33529;49.242;8.670;2023-07-31T00:24:44;16.80;99.90
47765;DHT22;33529;49.242;8.670;2023-07-31T00:27:10;16.80;99.90
47765;DHT22;33529;49.242;8.670;2023-07-31T00:29:37;16.80;99.90
47765;DHT22;33529;49.242;8.670;2023-07-31T00:32:04;16.90;99.90
47765;DHT22;33529;49.242;8.670;2023-07-31T00:34:31;16.90;99.90
47765;DHT22;33529;49.242;8.670;2023-07-31T00:36:58;16.90;99.90
47765;DHT22;33529;49.242;8.670;2023-07-31T00:39:25;16.90;99.90
47765;DHT22;33529;49.242;8.670;2023-07-31T00:41:52;17.00;99.90
47765;DHT22;33529;49.242;8.670;2023-07-31T00:44:18;17.00;99.90
47765;DHT22;33529;49.242;8.670;2023-07-31T00:46:45;17.00;99.90
47765;DHT22;33529;49.242;8.670;2023-07-31T00:49:12;17.00;99.90
47765;DHT22;33529;49.242;8.670;2023-07-31T00:51:39;17.00;99.90
47765;DHT22;33529;49.242;8.670;2023-07-31T00:54:07;17.10;99.90
47765;DHT22;33529;49.242;8.670;2023-07-31T00:56:34;17.10;99.90
47765;DHT22;33529;49.242;8.670;2023-07-31T00:59:01;17.20;99.90
47765;DHT22;33529;49.242;8.670;2023-07-31T01:01:27;17.10;99.90
47765;DHT22;33529;49.242;8.670;2023-07-31T01:03:54;17.10;99.90
47765;DHT22;33529;49.242;8.670;2023-07-31T01:06:44;17.10;99.90
47765;DHT22;33529;49.242;8.670;2023-07-31T01:12:14;17.10;99.90
47765;DHT22;33529;49.242;8.670;2023-07-31T01:15:11;17.20;99.90
47765;DHT22;33529;49.242;8.670;2023-07-31T01:17:39;17.10;99.90
47765;DHT22;33529;49.242;8.670;2023-07-31T01:20:10;17.20;99.90
47765;DHT22;33529;49.242;8.670;2023-07-31T01:28:18;17.20;99.90
47765;DHT22;33529;49.242;8.670;2023-07-31T01:30:48;17.20;99.90
47765;DHT22;33529;49.242;8.670;2023-07-31T01:33:16;17.20;99.90
47765;DHT22;33529;49.242;8.670;2023-07-31T01:35:45;17.20;99.90
47765;DHT22;33529;49.242;8.670;2023-07-31T01:38:12;17.20;99.90
47765;DHT22;33529;49.242;8.670;2023-07-31T01:40:43;17.20;99.90
47765;DHT22;33529;49.242;8.670;2023-07-31T01:43:10;17.20;99.90
47765;DHT22;33529;49.242;8.670;2023-07-31T01:45:37;17.20;99.90
47765;DHT22;33529;49.242;8.670;2023-07-31T01:48:04;17.20;99.90
47765;DHT22;33529;49.242;8.670;2023-07-31T01:50:31;17.20;99.90
47765;DHT22;33529;49.242;8.670;2023-07-31T01:52:57;17.20;99.90
47765;DHT22;33529;49.242;8.670;2023-07-31T01:55:24;17.20;99.90
47765;DHT22;33529;49.242;8.670;2023-07-31T01:57:51;17.20;99.90
47765;DHT22;33529;49.242;8.670;2023-07-31T02:00:19;17.20;99.90
47765;DHT22;33529;49.242;8.670;2023-07-31T02:02:46;17.20;99.90
47765;DHT22;33529;49.242;8.670;2023-07-31T02:05:13;17.30;99.90
47765;DHT22;33529;49.242;8.670;2023-07-31T02:07:39;17.30;99.90
47765;DHT22;33529;49.242;8.670;2023-07-31T02:10:06;17.30;99.90
47765;DHT22;33529;49.242;8.670;2023-07-31T02:12:35;17.30;99.90
47765;DHT22;33529;49.242;8.670;2023-07-31T02:15:02;17.30;99.90
47765;DHT22;33529;49.242;8.670;2023-07-31T02:17:29;17.30;99.90
47765;DHT22;33529;49.242;8.670;2023-07-31T02:19:56;17.30;99.90
47765;DHT22;33529;49.242;8.670;2023-07-31T02:22:24;17.30;99.90
47765;DHT22;33529;49.242;8.670;2023-07-31T02:24:50;17.20;99.90
47765;DHT22;33529;49.242;8.670;2023-07-31T02:27:17;17.30;99.90
47765;DHT22;33529;49.242;8.670;2023-07-31T02:29:44;17.30;99.90
47765;DHT22;33529;49.242;8.670;2023-07-31T02:32:11;17.20;99.90
47765;DHT22;33529;49.242;8.670;2023-07-31T02:34:39;17.20;99.90
47765;DHT22;33529;49.242;8.670;2023-07-31T02:37:06;17.20;99.90
47765;DHT22;33529;49.242;8.670;2023-07-31T02:39:33;17.20;99.90
47765;DHT22;33529;49.242;8.670;2023-07-31T02:42:00;17.20;99.90
47765;DHT22;33529;49.242;8.670;2023-07-31T02:44:27;17.20;99.90
47765;DHT22;33529;49.242;8.670;2023-07-31T02:46:54;17.20;99.90
47765;DHT22;33529;49.242;8.670;2023-07-31T02:49:21;17.10;99.90
47765;DHT22;33529;49.242;8.670;2023-07-31T02:51:47;17.20;99.90
47765;DHT22;33529;49.242;8.670;2023-07-31T02:54:15;17.10;99.90
47765;DHT22;33529;49.242;8.670;2023-07-31T02:56:41;17.10;99.90
47765;DHT22;33529;49.242;8.670;2023-07-31T02:59:09;17.00;99.90
47765;DHT22;33529;49.242;8.670;2023-07-31T03:01:35;17.10;99.90
47765;DHT22;33529;49.242;8.670;2023-07-31T03:04:02;17.00;99.90
47765;DHT22;33529;49.242;8.670;2023-07-31T03:06:29;17.00;99.90
47765;DHT22;33529;49.242;8.670;2023-07-31T03:08:56;17.00;99.90
47765;DHT22;33529;49.242;8.670;2023-07-31T03:11:23;17.00;99.90
47765;DHT22;33529;49.242;8.670;2023-07-31T03:13:49;16.90;99.90
47765;DHT22;33529;49.242;8.670;2023-07-31T03:16:16;16.90;99.90
47765;DHT22;33529;49.242;8.670;2023-07-31T03:18:43;16.80;99.90
47765;DHT22;33529;49.242;8.670;2023-07-31T03:21:10;16.70;99.90
47765;DHT22;33529;49.242;8.670;2023-07-31T03:23:37;16.70;99.90
47765;DHT22;33529;49.242;8.670;2023-07-31T03:26:07;16.60;99.90
47765;DHT22;33529;49.242;8.670;2023-07-31T03:28:34;16.60;99.90
47765;DHT22;33529;49.242;8.670;2023-07-31T03:31:01;16.60;99.90
47765;DHT22;33529;49.242;8.670;2023-07-31T03:33:29;16.50;99.90
47765;DHT22;33529;49.242;8.670;2023-07-31T03:35:56;16.50;99.90
47765;DHT22;33529;49.242;8.670;2023-07-31T03:38:22;16.50;99.90
47765;DHT22;33529;49.242;8.670;2023-07-31T03:40:49;16.40;99.90
47765;DHT22;33529;49.242;8.670;2023-07-31T03:43:16;16.50;99.90
47765;DHT22;33529;49.242;8.670;2023-07-31T03:45:43;16.40;99.90
47765;DHT22;33529;49.242;8.670;2023-07-31T03:48:10;16.40;99.90
47765;DHT22;33529;49.242;8.670;2023-07-31T03:50:37;16.40;99.90
47765;DHT22;33529;49.242;8.670;2023-07-31T03:53:04;16.30;99.90
47765;DHT22;33529;49.242;8.670;2023-07-31T03:55:31;16.30;99.90
47765;DHT22;33529;49.242;8.670;2023-07-31T03:57:58;16.30;99.90
47765;DHT22;33529;49.242;8.670;2023-07-31T04:00:25;16.20;99.90
47765;DHT22;33529;49.242;8.670;2023-07-31T04:02:52;16.20;99.90
47765;DHT22;33529;49.242;8.670;2023-07-31T04:05:19;16.20;99.90
47765;DHT22;33529;49.242;8.670;2023-07-31T04:07:46;16.20;99.90
47765;DHT22;33529;49.242;8.670;2023-07-31T04:10:12;16.30;99.90
47765;DHT22;33529;49.242;8.670;2023-07-31T04:12:39;16.30;99.90
47765;DHT22;33529;49.242;8.670;2023-07-31T04:15:06;16.30;99.90
47765;DHT22;33529;49.242;8.670;2023-07-31T04:17:33;16.40;99.90
47765;DHT22;33529;49.242;8.670;2023-07-31T04:20:00;16.40;99.90
47765;DHT22;33529;49.242;8.670;2023-07-31T04:22:27;16.50;99.90
47765;DHT22;33529;49.242;8.670;2023-07-31T04:24:54;16.50;99.90
47765;DHT22;33529;49.242;8.670;2023-07-31T04:27:21;16.50;99.90
47765;DHT22;33529;49.242;8.670;2023-07-31T04:29:48;16.60;99.90
47765;DHT22;33529;49.242;8.670;2023-07-31T04:32:15;16.60;99.90
47765;DHT22;33529;49.242;8.670;2023-07-31T04:34:46;16.70;99.90
47765;DHT22;33529;49.242;8.670;2023-07-31T04:37:12;16.70;99.90
47765;DHT22;33529;49.242;8.670;2023-07-31T04:39:39;16.70;99.90
47765;DHT22;33529;49.242;8.670;2023-07-31T04:42:06;16.80;99.90
47765;DHT22;33529;49.242;8.670;2023-07-31T04:44:33;16.80;99.90
47765;DHT22;33529;49.242;8.670;2023-07-31T04:47:00;16.80;99.90
47765;DHT22;33529;49.242;8.670;2023-07-31T04:49:27;16.80;99.90
47765;DHT22;33529;49.242;8.670;2023-07-31T04:51:53;16.80;99.90
47765;DHT22;33529;49.242;8.670;2023-07-31T04:54:20;16.80;99.90
47765;DHT22;33529;49.242;8.670;2023-07-31T04:56:47;16.90;99.90
47765;DHT22;33529;49.242;8.670;2023-07-31T04:59:14;16.90;99.90
47765;DHT22;33529;49.242;8.670;2023-07-31T05:01:41;17.00;99.90
47765;DHT22;33529;49.242;8.670;2023-07-31T05:04:08;17.00;99.90
47765;DHT22;33529;49.242;8.670;2023-07-31T05:06:35;17.00;99.90
47765;DHT22;33529;49.242;8.670;2023-07-31T05:09:02;17.00;99.90
47765;DHT22;33529;49.242;8.670;2023-07-31T05:11:29;17.00;99.90
47765;DHT22;33529;49.242;8.670;2023-07-31T05:13:55;17.00;99.90
47765;DHT22;33529;49.242;8.670;2023-07-31T05:16:22;17.00;99.90
47765;DHT22;33529;49.242;8.670;2023-07-31T05:18:49;17.00;99.90
47765;DHT22;33529;49.242;8.670;2023-07-31T05:21:16;17.10;99.90
47765;DHT22;33529;49.242;8.670;2023-07-31T05:23:43;17.10;99.90
47765;DHT22;33529;49.242;8.670;2023-07-31T05:26:10;17.20;99.90
47765;DHT22;33529;49.242;8.670;2023-07-31T05:28:37;17.30;99.90
47765;DHT22;33529;49.242;8.670;2023-07-31T05:31:04;17.40;99.90
47765;DHT22;33529;49.242;8.670;2023-07-31T05:33:31;17.40;99.90
47765;DHT22;33529;49.242;8.670;2023-07-31T05:35:58;17.50;99.90
47765;DHT22;33529;49.242;8.670;2023-07-31T05:38:25;17.50;99.90
47765;DHT22;33529;49.242;8.670;2023-07-31T05:40:52;17.40;99.90
47765;DHT22;33529;49.242;8.670;2023-07-31T05:43:19;17.50;99.90
47765;DHT22;33529;49.242;8.670;2023-07-31T05:45:46;17.60;99.90
47765;DHT22;33529;49.242;8.670;2023-07-31T05:48:13;17.80;99.90
47765;DHT22;33529;49.242;8.670;2023-07-31T05:50:39;17.80;99.90
47765;DHT22;33529;49.242;8.670;2023-07-31T05:53:06;17.90;99.90
47765;DHT22;33529;49.242;8.670;2023-07-31T05:55:34;17.90;99.90
47765;DHT22;33529;49.242;8.670;2023-07-31T05:58:01;18.00;99.90
47765;DHT22;33529;49.242;8.670;2023-07-31T06:00:28;17.90;99.90
47765;DHT22;33529;49.242;8.670;2023-07-31T06:02:55;17.80;99.90
47765;DHT22;33529;49.242;8.670;2023-07-31T06:05:22;17.90;99.90
47765;DHT22;33529;49.242;8.670;2023-07-31T06:07:49;17.90;99.90
47765;DHT22;33529;49.242;8.670;2023-07-31T06:10:15;17.80;99.90
47765;DHT22;33529;49.242;8.670;2023-07-31T06:12:42;17.90;99.90
47765;DHT22;33529;49.242;8.670;2023-07-31T06:15:09;18.00;99.90
47765;DHT22;33529;49.242;8.670;2023-07-31T06:17:36;18.10;99.90
47765;DHT22;33529;49.242;8.670;2023-07-31T06:20:05;18.20;99.90
47765;DHT22;33529;49.242;8.670;2023-07-31T06:22:32;18.10;99.90
47765;DHT22;33529;49.242;8.670;2023-07-31T06:24:59;18.20;99.90
47765;DHT22;33529;49.242;8.670;2023-07-31T06:27:26;18.30;99.90
47765;DHT22;33529;49.242;8.670;2023-07-31T06:29:53;18.30;99.90
47765;DHT22;33529;49.242;8.670;2023-07-31T06:32:19;18.30;99.90
47765;DHT22;33529;49.242;8.670;2023-07-31T06:34:46;18.50;99.90
47765;DHT22;33529;49.242;8.670;2023-07-31T06:37:13;18.60;99.90
47765;DHT22;33529;49.242;8.670;2023-07-31T06:39:40;18.70;99.90
47765;DHT22;33529;49.242;8.670;2023-07-31T06:42:07;18.70;99.90
47765;DHT22;33529;49.242;8.670;2023-07-31T06:44:34;18.80;99.90
47765;DHT22;33529;49.242;8.670;2023-07-31T06:47:00;18.70;99.90
47765;DHT22;33529;49.242;8.670;2023-07-31T06:49:27;18.70;99.90
47765;DHT22;33529;49.242;8.670;2023-07-31T06:51:54;18.70;99.90
47765;DHT22;33529;49.242;8.670;2023-07-31T06:54:21;18.80;99.90
47765;DHT22;33529;49.242;8.670;2023-07-31T06:56:48;18.90;99.90
47765;DHT22;33529;49.242;8.670;2023-07-31T06:59:14;18.90;99.90
47765;DHT22;33529;49.242;8.670;2023-07-31T07:01:41;18.90;99.90
47765;DHT22;33529;49.242;8.670;2023-07-31T07:04:08;19.00;99.90
47765;DHT22;33529;49.242;8.670;2023-07-31T07:06:35;19.00;99.90
47765;DHT22;33529;49.242;8.670;2023-07-31T07:09:02;19.00;99.90
47765;DHT22;33529;49.242;8.670;2023-07-31T07:11:29;19.10;99.90
47765;DHT22;33529;49.242;8.670;2023-07-31T07:13:56;19.00;99.90
47765;DHT22;33529;49.242;8.670;2023-07-31T07:16:23;19.10;99.90
47765;DHT22;33529;49.242;8.670;2023-07-31T07:18:50;19.30;99.90
47765;DHT22;33529;49.242;8.670;2023-07-31T07:21:30;19.50;99.90
47765;DHT22;33529;49.242;8.670;2023-07-31T07:23:56;19.50;99.90
47765;DHT22;33529;49.242;8.670;2023-07-31T07:26:23;19.60;99.90
47765;DHT22;33529;49.242;8.670;2023-07-31T07:28:50;19.70;99.90
47765;DHT22;33529;49.242;8.670;2023-07-31T07:31:17;19.90;99.90
47765;DHT22;33529;49.242;8.670;2023-07-31T07:33:44;20.00;99.90
47765;DHT22;33529;49.242;8.670;2023-07-31T07:36:11;20.10;99.90
47765;DHT22;33529;49.242;8.670;2023-07-31T07:38:39;20.10;99.90
47765;DHT22;33529;49.242;8.670;2023-07-31T07:41:06;20.20;99.90
47765;DHT22;33529;49.242;8.670;2023-07-31T07:43:33;20.30;99.90
47765;DHT22;33529;49.242;8.670;2023-07-31T07:45:59;20.30;99.90
47765;DHT22;33529;49.242;8.670;2023-07-31T07:48:26;20.20;99.90
47765;DHT22;33529;49.242;8.670;2023-07-31T07:50:53;20.20;99.90
47765;DHT22;33529;49.242;8.670;2023-07-31T07:53:20;20.10;99.90
47765;DHT22;33529;49.242;8.670;2023-07-31T07:55:47;20.30;99.90
47765;DHT22;33529;49.242;8.670;2023-07-31T07:58:14;20.40;99.90
47765;DHT22;33529;49.242;8.670;2023-07-31T08:00:41;20.60;99.90
47765;DHT22;33529;49.242;8.670;2023-07-31T08:03:08;20.70;99.90
47765;DHT22;33529;49.242;8.670;2023-07-31T08:05:35;20.70;99.90
47765;DHT22;33529;49.242;8.670;2023-07-31T08:08:01;20.90;99.90
47765;DHT22;33529;49.242;8.670;2023-07-31T08:10:28;21.00;99.90
47765;DHT22;33529;49.242;8.670;2023-07-31T08:12:55;21.10;99.90
47765;DHT22;33529;49.242;8.670;2023-07-31T08:15:23;21.00;99.90
47765;DHT22;33529;49.242;8.670;2023-07-31T08:17:50;20.90;99.90
47765;DHT22;33529;49.242;8.670;2023-07-31T08:20:20;20.80;99.90
47765;DHT22;33529;49.242;8.670;2023-07-31T08:22:46;20.80;99.90
47765;DHT22;33529;49.242;8.670;2023-07-31T08:25:13;20.80;99.90
47765;DHT22;33529;49.242;8.670;2023-07-31T08:27:43;20.90;99.90
47765;DHT22;33529;49.242;8.670;2023-07-31T08:30:11;20.80;99.90
47765;DHT22;33529;49.242;8.670;2023-07-31T08:32:38;20.90;99.90
47765;DHT22;33529;49.242;8.670;2023-07-31T08:35:05;20.90;99.90
47765;DHT22;33529;49.242;8.670;2023-07-31T08:37:32;21.10;99.90
47765;DHT22;33529;49.242;8.670;2023-07-31T08:39:59;21.20;99.90
47765;DHT22;33529;49.242;8.670;2023-07-31T08:42:26;21.30;99.90
47765;DHT22;33529;49.242;8.670;2023-07-31T08:44:56;21.50;99.90
47765;DHT22;33529;49.242;8.670;2023-07-31T08:47:23;21.70;99.90
47765;DHT22;33529;49.242;8.670;2023-07-31T08:49:51;22.00;99.90
47765;DHT22;33529;49.242;8.670;2023-07-31T08:52:18;22.40;99.90
47765;DHT22;33529;49.242;8.670;2023-07-31T08:54:45;22.50;99.90
47765;DHT22;33529;49.242;8.670;2023-07-31T08:57:12;22.70;99.90
47765;DHT22;33529;49.242;8.670;2023-07-31T08:59:40;22.80;99.90
47765;DHT22;33529;49.242;8.670;2023-07-31T09:02:08;22.80;99.90
47765;DHT22;33529;49.242;8.670;2023-07-31T09:04:35;22.70;99.90
47765;DHT22;33529;49.242;8.670;2023-07-31T09:07:03;22.70;99.90
47765;DHT22;33529;49.242;8.670;2023-07-31T09:09:31;22.70;99.90
47765;DHT22;33529;49.242;8.670;2023-07-31T09:11:58;22.70;99.90
47765;DHT22;33529;49.242;8.670;2023-07-31T09:14:26;22.80;99.90
47765;DHT22;33529;49.242;8.670;2023-07-31T09:16:57;22.80;99.90
47765;DHT22;33529;49.242;8.670;2023-07-31T09:19:33;22.60;99.90
47765;DHT22;33529;49.242;8.670;2023-07-31T09:22:00;22.70;99.90
47765;DHT22;33529;49.242;8.670;2023-07-31T09:24:29;23.00;99.90
47765;DHT22;33529;49.242;8.670;2023-07-31T09:26:57;23.10;99.50
47765;DHT22;33529;49.242;8.670;2023-07-31T09:29:28;23.40;98.60
47765;DHT22;33529;49.242;8.670;2023-07-31T09:31:56;23.20;99.90
47765;DHT22;33529;49.242;8.670;2023-07-31T09:34:30;23.40;99.90
47765;DHT22;33529;49.242;8.670;2023-07-31T09:36:59;23.40;99.70
47765;DHT22;33529;49.242;8.670;2023-07-31T09:39:27;23.50;99.10
47765;DHT22;33529;49.242;8.670;2023-07-31T09:41:56;23.50;97.60
47765;DHT22;33529;49.242;8.670;2023-07-31T09:44:40;23.50;99.80
47765;DHT22;33529;49.242;8.670;2023-07-31T09:47:24;23.50;97.70
47765;DHT22;33529;49.242;8.670;2023-07-31T09:49:52;23.50;98.20
47765;DHT22;33529;49.242;8.670;2023-07-31T09:52:18;23.30;99.10
47765;DHT22;33529;49.242;8.670;2023-07-31T09:54:45;23.30;98.00
47765;DHT22;33529;49.242;8.670;2023-07-31T09:57:12;23.30;98.10
47765;DHT22;33529;49.242;8.670;2023-07-31T09:59:40;23.10;98.10
47765;DHT22;33529;49.242;8.670;2023-07-31T10:02:09;23.00;98.90
47765;DHT22;33529;49.242;8.670;2023-07-31T10:04:39;23.10;98.70
47765;DHT22;33529;49.242;8.670;2023-07-31T10:07:06;23.20;98.00
47765;DHT22;33529;49.242;8.670;2023-07-31T10:09:35;23.30;97.60
47765;DHT22;33529;49.242;8.670;2023-07-31T10:12:05;23.40;96.60
47765;DHT22;33529;49.242;8.670;2023-07-31T10:14:37;23.40;97.90
47765;DHT22;33529;49.242;8.670;2023-07-31T10:17:06;23.30;96.70
47765;DHT22;33529;49.242;8.670;2023-07-31T10:19:34;23.40;97.20
47765;DHT22;33529;49.242;8.670;2023-07-31T10:22:03;23.40;97.40
47765;DHT22;33529;49.242;8.670;2023-07-31T10:24:30;23.50;97.00
47765;DHT22;33529;49.242;8.670;2023-07-31T10:27:00;23.40;98.30
47765;DHT22;33529;49.242;8.670;2023-07-31T10:29:29;23.60;97.50
47765;DHT22;33529;49.242;8.670;2023-07-31T10:31:58;23.70;97.90
47765;DHT22;33529;49.242;8.670;2023-07-31T10:34:26;23.90;96.90
47765;DHT22;33529;49.242;8.670;2023-07-31T10:37:25;24.00;97.50
47765;DHT22;33529;49.242;8.670;2023-07-31T10:39:58;24.20;97.60
47765;DHT22;33529;49.242;8.670;2023-07-31T10:45:04;24.40;95.60
47765;DHT22;33529;49.242;8.670;2023-07-31T10:47:45;24.30;95.80
47765;DHT22;33529;49.242;8.670;2023-07-31T10:50:20;24.20;95.80
47765;DHT22;33529;49.242;8.670;2023-07-31T10:52:53;24.20;96.30
47765;DHT22;33529;49.242;8.670;2023-07-31T10:55:31;24.40;96.20
47765;DHT22;33529;49.242;8.670;2023-07-31T10:58:25;24.50;96.10
47765;DHT22;33529;49.242;8.670;2023-07-31T11:00:56;24.80;94.70
47765;DHT22;33529;49.242;8.670;2023-07-31T11:03:26;24.80;95.20
47765;DHT22;33529;49.242;8.670;2023-07-31T11:08:41;24.50;95.20
47765;DHT22;33529;49.242;8.670;2023-07-31T11:11:11;24.40;94.80
47765;DHT22;33529;49.242;8.670;2023-07-31T11:13:52;24.00;95.70
47765;DHT22;33529;49.242;8.670;2023-07-31T11:16:21;24.00;96.00
47765;DHT22;33529;49.242;8.670;2023-07-31T11:18:50;23.90;96.00
47765;DHT22;33529;49.242;8.670;2023-07-31T11:21:22;23.90;97.30
47765;DHT22;33529;49.242;8.670;2023-07-31T11:23:51;24.00;96.70
47765;DHT22;33529;49.242;8.670;2023-07-31T11:26:19;24.30;96.70
47765;DHT22;33529;49.242;8.670;2023-07-31T11:28:47;24.20;96.20
47765;DHT22;33529;49.242;8.670;2023-07-31T11:31:14;24.20;96.20
47765;DHT22;33529;49.242;8.670;2023-07-31T11:33:42;24.30;96.10
47765;DHT22;33529;49.242;8.670;2023-07-31T11:36:16;24.10;95.40
47765;DHT22;33529;49.242;8.670;2023-07-31T11:38:43;23.90;97.20
47765;DHT22;33529;49.242;8.670;2023-07-31T11:41:10;23.80;97.20
47765;DHT22;33529;49.242;8.670;2023-07-31T11:43:39;23.90;95.60
47765;DHT22;33529;49.242;8.670;2023-07-31T11:46:06;23.70;96.40
47765;DHT22;33529;49.242;8.670;2023-07-31T11:48:36;23.70;96.50
47765;DHT22;33529;49.242;8.670;2023-07-31T11:51:05;23.90;96.50
47765;DHT22;33529;49.242;8.670;2023-07-31T11:56:13;23.90;96.60
47765;DHT22;33529;49.242;8.670;2023-07-31T11:58:41;24.00;95.90
47765;DHT22;33529;49.242;8.670;2023-07-31T12:01:09;24.30;96.70
47765;DHT22;33529;49.242;8.670;2023-07-31T12:03:37;24.60;96.20
47765;DHT22;33529;49.242;8.670;2023-07-31T12:06:04;24.70;96.70
47765;DHT22;33529;49.242;8.670;2023-07-31T12:08:31;24.90;96.60
47765;DHT22;33529;49.242;8.670;2023-07-31T12:11:03;24.60;96.40
47765;DHT22;33529;49.242;8.670;2023-07-31T12:13:31;24.30;95.80
47765;DHT22;33529;49.242;8.670;2023-07-31T12:16:00;24.20;95.80
47765;DHT22;33529;49.242;8.670;2023-07-31T12:18:30;24.10;95.70
47765;DHT22;33529;49.242;8.670;2023-07-31T12:21:01;24.10;96.30
47765;DHT22;33529;49.242;8.670;2023-07-31T12:23:30;24.20;97.20
47765;DHT22;33529;49.242;8.670;2023-07-31T12:28:30;24.50;97.30
47765;DHT22;33529;49.242;8.670;2023-07-31T12:31:00;25.00;97.40
47765;DHT22;33529;49.242;8.670;2023-07-31T12:33:46;25.50;96.30
47765;DHT22;33529;49.242;8.670;2023-07-31T12:36:16;25.40;95.50
47765;DHT22;33529;49.242;8.670;2023-07-31T12:38:44;25.50;95.20
47765;DHT22;33529;49.242;8.670;2023-07-31T12:41:11;25.50;95.50
47765;DHT22;33529;49.242;8.670;2023-07-31T12:43:40;25.60;94.80
47765;DHT22;33529;49.242;8.670;2023-07-31T12:46:08;25.60;95.30
47765;DHT22;33529;49.242;8.670;2023-07-31T12:48:36;25.80;95.10
47765;DHT22;33529;49.242;8.670;2023-07-31T12:51:03;25.90;95.70
47765;DHT22;33529;49.242;8.670;2023-07-31T12:53:30;26.00;94.40
47765;DHT22;33529;49.242;8.670;2023-07-31T12:55:57;26.10;94.00
47765;DHT22;33529;49.242;8.670;2023-07-31T12:58:24;25.90;93.90
47765;DHT22;33529;49.242;8.670;2023-07-31T13:00:51;25.90;94.30
47765;DHT22;33529;49.242;8.670;2023-07-31T13:03:18;25.80;94.00
47765;DHT22;33529;49.242;8.670;2023-07-31T13:05:45;25.60;93.40
47765;DHT22;33529;49.242;8.670;2023-07-31T13:08:12;25.40;94.00
47765;DHT22;33529;49.242;8.670;2023-07-31T13:10:38;25.30;94.40
47765;DHT22;33529;49.242;8.670;2023-07-31T13:13:05;25.20;94.00
47765;DHT22;33529;49.242;8.670;2023-07-31T13:15:32;25.20;95.20
47765;DHT22;33529;49.242;8.670;2023-07-31T13:17:59;25.10;95.10
47765;DHT22;33529;49.242;8.670;2023-07-31T13:20:26;25.00;94.10
47765;DHT22;33529;49.242;8.670;2023-07-31T13:22:53;24.60;95.00
47765;DHT22;33529;49.242;8.670;2023-07-31T13:25:20;24.60;95.80
47765;DHT22;33529;49.242;8.670;2023-07-31T13:27:47;24.30;95.50
47765;DHT22;33529;49.242;8.670;2023-07-31T13:30:13;24.10;96.10
47765;DHT22;33529;49.242;8.670;2023-07-31T13:32:40;23.90;96.00
47765;DHT22;33529;49.242;8.670;2023-07-31T13:35:08;23.70;96.40
47765;DHT22;33529;49.242;8.670;2023-07-31T13:37:35;23.70;97.40
47765;DHT22;33529;49.242;8.670;2023-07-31T13:40:02;23.80;98.70
47765;DHT22;33529;49.242;8.670;2023-07-31T13:42:32;24.00;97.50
47765;DHT22;33529;49.242;8.670;2023-07-31T13:44:59;24.10;96.70
47765;DHT22;33529;49.242;8.670;2023-07-31T13:47:28;24.10;96.40
47765;DHT22;33529;49.242;8.670;2023-07-31T13:49:55;24.20;96.90
47765;DHT22;33529;49.242;8.670;2023-07-31T13:52:21;24.40;96.10
47765;DHT22;33529;49.242;8.670;2023-07-31T13:54:48;24.60;96.50
47765;DHT22;33529;49.242;8.670;2023-07-31T13:57:15;24.80;96.60
47765;DHT22;33529;49.242;8.670;2023-07-31T13:59:42;25.00;96.20
47765;DHT22;33529;49.242;8.670;2023-07-31T14:02:09;25.30;95.30
47765;DHT22;33529;49.242;8.670;2023-07-31T14:04:36;25.30;95.00
47765;DHT22;33529;49.242;8.670;2023-07-31T14:07:03;25.10;94.80
47765;DHT22;33529;49.242;8.670;2023-07-31T14:09:31;24.90;95.90
47765;DHT22;33529;49.242;8.670;2023-07-31T14:11:58;24.70;96.50
47765;DHT22;33529;49.242;8.670;2023-07-31T14:14:24;24.60;96.20
47765;DHT22;33529;49.242;8.670;2023-07-31T14:16:51;24.40;97.60
47765;DHT22;33529;49.242;8.670;2023-07-31T14:19:18;24.40;97.50
47765;DHT22;33529;49.242;8.670;2023-07-31T14:21:45;24.20;97.10
47765;DHT22;33529;49.242;8.670;2023-07-31T14:24:31;24.00;98.10
47765;DHT22;33529;49.242;8.670;2023-07-31T14:26:58;24.00;99.70
47765;DHT22;33529;49.242;8.670;2023-07-31T14:29:25;24.00;99.80
47765;DHT22;33529;49.242;8.670;2023-07-31T14:31:52;24.00;99.40
47765;DHT22;33529;49.242;8.670;2023-07-31T14:34:19;24.00;98.80
47765;DHT22;33529;49.242;8.670;2023-07-31T14:36:46;23.90;99.40
47765;DHT22;33529;49.242;8.670;2023-07-31T14:39:13;23.90;99.80
47765;DHT22;33529;49.242;8.670;2023-07-31T14:41:39;24.00;99.70
47765;DHT22;33529;49.242;8.670;2023-07-31T14:44:06;24.00;98.90
47765;DHT22;33529;49.242;8.670;2023-07-31T14:46:33;24.00;98.30
47765;DHT22;33529;49.242;8.670;2023-07-31T14:49:01;24.00;98.50
47765;DHT22;33529;49.242;8.670;2023-07-31T14:51:27;24.10;97.40
47765;DHT22;33529;49.242;8.670;2023-07-31T14:53:54;24.20;97.80
47765;DHT22;33529;49.242;8.670;2023-07-31T14:56:21;24.30;98.40
47765;DHT22;33529;49.242;8.670;2023-07-31T14:58:48;24.50;98.00
47765;DHT22;33529;49.242;8.670;2023-07-31T15:01:15;24.90;97.90
47765;DHT22;33529;49.242;8.670;2023-07-31T15:03:41;25.20;97.30
47765;DHT22;33529;49.242;8.670;2023-07-31T15:06:08;25.30;97.00
47765;DHT22;33529;49.242;8.670;2023-07-31T15:08:35;25.70;96.20
47765;DHT22;33529;49.242;8.670;2023-07-31T15:11:03;26.50;94.30
47765;DHT22;33529;49.242;8.670;2023-07-31T15:13:30;26.70;94.40
47765;DHT22;33529;49.242;8.670;2023-07-31T15:15:56;27.30;93.20
47765;DHT22;33529;49.242;8.670;2023-07-31T15:18:24;27.60;92.80
47765;DHT22;33529;49.242;8.670;2023-07-31T15:20:54;27.70;92.00
47765;DHT22;33529;49.242;8.670;2023-07-31T15:23:20;27.70;92.80
47765;DHT22;33529;49.242;8.670;2023-07-31T15:25:47;27.60;92.30
47765;DHT22;33529;49.242;8.670;2023-07-31T15:28:14;28.00;91.80
47765;DHT22;33529;49.242;8.670;2023-07-31T15:30:41;27.90;92.00
47765;DHT22;33529;49.242;8.670;2023-07-31T15:33:08;27.80;92.60
47765;DHT22;33529;49.242;8.670;2023-07-31T15:35:35;27.60;91.00
47765;DHT22;33529;49.242;8.670;2023-07-31T15:38:02;27.40;91.60
47765;DHT22;33529;49.242;8.670;2023-07-31T15:40:29;27.20;92.10
47765;DHT22;33529;49.242;8.670;2023-07-31T15:42:56;26.80;92.10
47765;DHT22;33529;49.242;8.670;2023-07-31T15:45:22;26.40;92.60
47765;DHT22;33529;49.242;8.670;2023-07-31T15:47:49;26.00;92.60
47765;DHT22;33529;49.242;8.670;2023-07-31T15:50:16;25.70;94.20
47765;DHT22;33529;49.242;8.670;2023-07-31T15:52:43;25.20;94.80